Brandon, SD

2:27 PM CST on December 21, 2014 (GMT -0600)
East Sioux Falls | Change Station
CLOSE
Current Station
Personal Weather Station
Location: Sioux Falls, SD
Elevation: 1473 ft
Nearby Weather Stations

Elev 1473 ft 43.55 °N, 96.66 °W | Updated 40 seconds ago

Overcast
Overcast
36.5 °F
Feels Like 32 °F
N
5.8
Wind Variable Wind from SSE
Gusts 7.4 mph

Today
High -- | Low -- °F
--% Chance of Precip.
Yesterday
High -- | Low -- °F
Precip. -- in
7:56 AM 4:52 PM
Waning Crescent, 0% visible
Pressure 29.68 in
Visibility 4.0 miles
Clouds Overcast 400 ft
Windchill 32 °F
Dew Point 34 °F
Humidity 89%
Rainfall 0.02 in
Snow Depth Not available.
UV 1.0 out of 12
Pollen .10 out of 12
Air Quality Not available.
Flu Activity Not available.
METAR KFSD 211956Z 18013KT 4SM BR OVC004 02/01 A2963 RMK AO2 SLP050 T00170011

More Conditions Fewer Conditions

Pressure 29.68 in
Visibility 4.0 miles
Clouds Overcast 400 ft
Windchill 32 °F
Dew Point 34 °F
Humidity 89%
Rainfall 0.02 in
Snow Depth Not available.
UV 1.0 out of 12
Pollen .10 out of 12
Air Quality Not available.
Flu Activity Not available.
METAR KFSD 211956Z 18013KT 4SM BR OVC004 02/01 A2963 RMK AO2 SLP050 T00170011

More Conditions Fewer Conditions

10-Day Weather Forecast

Almanac

Astronomy

Dec. 21, 2014 Rise Set
Actual Time
Civil Twilight
Nautical Twilight
Astronomical Twilight
Moon
Length of Visible Light
Length of Day
Tomorrow will be .
, % of the Moon is Illuminated

Today's Extremes

State Highs State Lows

Community

WunderPhotos

Upload Photos

1,779,469 photos uploaded!

WunderBlogs® & News

Nearby

Air Quality

  Air Quality AQ Index Pollutant
Not available.

Snow Depth

Station Depth Elevation

Earthquake Activity

City Distance Mag. Time & Date
Minimum magnitude displayed is 2.5.

Coastal Water Temperatures

Place Temperature

Nearby Weather Stations